createdAt,value
2022-08-24T00:00:25.541Z,4.51
2022-08-24T00:02:53.066Z,4.45
2022-08-24T00:05:20.449Z,4.51
2022-08-24T00:07:47.734Z,4.74
2022-08-24T00:10:15.025Z,4.89
2022-08-24T00:12:42.291Z,4.62
2022-08-24T00:15:11.538Z,4.97
2022-08-24T00:17:38.809Z,4.64
2022-08-24T00:20:06.119Z,4.72
2022-08-24T00:22:33.389Z,4.74
2022-08-24T00:25:00.683Z,4.98
2022-08-24T00:27:27.999Z,5.02
2022-08-24T00:29:55.287Z,4.67
2022-08-24T00:32:22.613Z,4.81
2022-08-24T00:34:54.074Z,4.81
2022-08-24T00:37:26.389Z,4.88
2022-08-24T00:39:53.744Z,4.65
2022-08-24T00:42:21.175Z,4.79
2022-08-24T00:44:48.444Z,5.17
2022-08-24T00:47:15.716Z,5.04
2022-08-24T00:49:42.996Z,5.17
2022-08-24T00:52:10.297Z,5.08
2022-08-24T00:54:37.567Z,4.88
2022-08-24T00:57:04.850Z,5.00
2022-08-24T00:59:33.361Z,5.20
2022-08-24T01:02:01.457Z,5.01
2022-08-24T01:04:43.538Z,5.35
2022-08-24T01:07:10.826Z,5.04
2022-08-24T01:09:38.096Z,5.07
2022-08-24T01:12:05.387Z,5.07
2022-08-24T01:14:32.648Z,5.02
2022-08-24T01:16:59.929Z,4.80
2022-08-24T01:19:27.219Z,5.08
2022-08-24T01:21:54.511Z,4.87
2022-08-24T01:24:21.776Z,4.72
2022-08-24T01:26:49.057Z,4.88
2022-08-24T01:29:16.631Z,4.90
2022-08-24T01:31:43.977Z,4.90
2022-08-24T01:34:12.811Z,5.40
2022-08-24T01:36:40.206Z,4.86
2022-08-24T01:39:09.431Z,5.07
2022-08-24T01:41:36.699Z,4.94
2022-08-24T01:44:03.984Z,4.94
2022-08-24T01:46:31.327Z,4.89
2022-08-24T01:48:58.654Z,4.88
2022-08-24T01:51:26.050Z,4.78
2022-08-24T01:53:53.319Z,4.92
2022-08-24T01:56:20.606Z,5.06
2022-08-24T01:58:47.909Z,4.84
2022-08-24T02:01:15.191Z,4.93
2022-08-24T02:03:42.479Z,4.71
2022-08-24T02:06:10.251Z,5.12
2022-08-24T02:08:37.508Z,4.76
2022-08-24T02:11:04.775Z,4.95
2022-08-24T02:13:32.058Z,4.87
2022-08-24T02:15:59.350Z,4.95
2022-08-24T02:18:26.683Z,4.79
2022-08-24T02:20:53.971Z,5.08
2022-08-24T02:23:21.244Z,5.06
2022-08-24T02:25:48.513Z,5.01
2022-08-24T02:28:15.804Z,5.24
2022-08-24T02:30:43.118Z,5.18
2022-08-24T02:33:10.450Z,5.19
2022-08-24T02:35:37.729Z,5.13
2022-08-24T02:38:04.995Z,5.40
2022-08-24T02:40:32.285Z,5.30
2022-08-24T02:42:59.622Z,5.40
2022-08-24T02:45:26.911Z,5.49
2022-08-24T02:47:54.180Z,5.26
2022-08-24T02:50:21.476Z,5.26
2022-08-24T02:52:48.743Z,5.59
2022-08-24T02:55:20.127Z,5.48
2022-08-24T02:57:47.841Z,5.58
2022-08-24T03:00:15.128Z,5.39
2022-08-24T03:02:42.561Z,5.09
2022-08-24T03:05:09.879Z,5.15
2022-08-24T03:07:37.144Z,5.44
2022-08-24T03:10:04.437Z,5.24
2022-08-24T03:12:31.726Z,5.16
2022-08-24T03:14:59.006Z,5.13
2022-08-24T03:17:26.270Z,5.05
2022-08-24T03:19:55.364Z,5.06
2022-08-24T03:22:22.637Z,5.20
2022-08-24T03:24:49.904Z,5.18
2022-08-24T03:27:17.196Z,5.30
2022-08-24T03:29:44.461Z,5.25
2022-08-24T03:32:11.989Z,5.14
2022-08-24T03:34:39.275Z,5.57
2022-08-24T03:37:06.555Z,4.95
2022-08-24T03:39:33.839Z,4.96
2022-08-24T03:42:01.114Z,5.05
2022-08-24T03:44:28.416Z,5.03
2022-08-24T03:46:55.683Z,4.66
2022-08-24T03:49:22.950Z,5.15
2022-08-24T03:51:50.467Z,5.11
2022-08-24T03:54:17.739Z,4.96
2022-08-24T03:56:45.004Z,4.90
2022-08-24T03:59:12.304Z,4.87
2022-08-24T04:01:39.633Z,4.97
2022-08-24T04:04:06.948Z,4.89
2022-08-24T04:06:34.254Z,4.63
2022-08-24T04:09:01.532Z,4.92
2022-08-24T04:11:28.799Z,4.83
2022-08-24T04:13:56.091Z,5.06
2022-08-24T04:16:23.388Z,5.07
2022-08-24T04:18:50.695Z,5.21
2022-08-24T04:21:17.984Z,5.01
2022-08-24T04:23:46.960Z,5.09
2022-08-24T04:26:15.097Z,5.82
2022-08-24T04:28:42.402Z,5.40
2022-08-24T04:31:09.668Z,4.99
2022-08-24T04:33:36.947Z,4.90
2022-08-24T04:36:04.241Z,4.96
2022-08-24T04:38:31.505Z,5.25
2022-08-24T04:41:00.212Z,5.22
2022-08-24T04:43:27.734Z,5.42
2022-08-24T04:45:55.045Z,5.13
2022-08-24T04:48:22.357Z,5.21
2022-08-24T04:50:49.633Z,5.40
2022-08-24T04:53:16.908Z,5.50
2022-08-24T04:55:46.218Z,5.64
2022-08-24T04:58:13.483Z,5.89
2022-08-24T05:00:40.855Z,5.44
2022-08-24T05:03:08.185Z,5.42
2022-08-24T05:05:35.451Z,5.37
2022-08-24T05:08:02.735Z,5.30
2022-08-24T05:10:33.656Z,5.49
2022-08-24T05:13:01.193Z,5.29
2022-08-24T05:15:28.498Z,5.13
2022-08-24T05:17:55.793Z,5.18
2022-08-24T05:20:23.069Z,5.16
2022-08-24T05:22:55.381Z,4.93
2022-08-24T05:25:23.028Z,5.22
2022-08-24T05:27:50.283Z,5.20
2022-08-24T05:30:17.549Z,5.47
2022-08-24T05:32:44.855Z,5.73
2022-08-24T05:35:12.130Z,5.43
2022-08-24T05:37:39.424Z,5.43
2022-08-24T05:40:06.737Z,5.48
2022-08-24T05:42:34.067Z,5.90
2022-08-24T05:45:01.365Z,5.44
2022-08-24T05:47:28.650Z,5.79
2022-08-24T05:49:55.915Z,5.89
2022-08-24T05:52:23.218Z,5.64
2022-08-24T05:54:50.501Z,5.52
2022-08-24T05:57:17.768Z,6.03
2022-08-24T05:59:47.063Z,5.61
2022-08-24T06:02:14.464Z,5.74
2022-08-24T06:04:41.823Z,5.36
2022-08-24T06:07:09.103Z,5.76
2022-08-24T06:09:36.395Z,5.69
2022-08-24T06:12:03.670Z,5.78
2022-08-24T06:14:30.931Z,5.80
2022-08-24T06:16:58.312Z,5.54
2022-08-24T06:19:25.656Z,5.77
2022-08-24T06:21:52.943Z,5.80
2022-08-24T06:24:20.221Z,5.65
2022-08-24T06:26:49.085Z,5.47
2022-08-24T06:29:17.715Z,5.49
2022-08-24T06:31:45.079Z,5.52
2022-08-24T06:34:13.741Z,5.50
2022-08-24T06:36:41.029Z,5.29
2022-08-24T06:39:08.606Z,5.19
2022-08-24T06:41:37.414Z,5.65
2022-08-24T06:44:04.683Z,5.33
2022-08-24T06:46:32.958Z,5.45
2022-08-24T06:49:02.439Z,5.44
2022-08-24T06:51:29.709Z,5.38
2022-08-24T06:53:56.984Z,5.35
2022-08-24T06:56:24.268Z,5.40
2022-08-24T06:58:51.561Z,5.13
2022-08-24T07:01:18.896Z,5.46
2022-08-24T07:03:46.200Z,5.59
2022-08-24T07:06:13.488Z,5.39
2022-08-24T07:08:40.761Z,5.31
2022-08-24T07:11:08.055Z,5.51
2022-08-24T07:13:35.352Z,5.62
2022-08-24T07:16:02.698Z,5.47
2022-08-24T07:18:30.081Z,5.45
2022-08-24T07:20:57.375Z,5.50
2022-08-24T07:23:27.335Z,5.36
2022-08-24T07:26:09.676Z,4.95
2022-08-24T07:28:39.871Z,5.31
2022-08-24T07:31:07.201Z,5.22
2022-08-24T07:33:34.497Z,5.36
2022-08-24T07:36:01.783Z,5.84
2022-08-24T07:38:29.079Z,5.90
2022-08-24T07:41:20.214Z,5.81
2022-08-24T07:43:44.254Z,5.81
2022-08-24T07:46:11.588Z,5.70
2022-08-24T07:48:38.897Z,5.84
2022-08-24T07:51:06.216Z,5.65
2022-08-24T07:53:52.545Z,5.26
2022-08-24T07:56:20.731Z,5.75
2022-08-24T07:58:48.020Z,5.94
2022-08-24T08:01:15.392Z,5.27
2022-08-24T08:03:42.806Z,5.45
2022-08-24T08:06:15.890Z,5.22
2022-08-24T08:08:43.760Z,5.89
2022-08-24T08:11:11.035Z,5.66
2022-08-24T08:13:38.373Z,5.55
2022-08-24T08:16:08.430Z,5.32
2022-08-24T08:18:36.219Z,5.27
2022-08-24T08:21:03.632Z,6.00
2022-08-24T08:23:30.925Z,5.74
2022-08-24T08:25:58.207Z,5.79
2022-08-24T08:28:33.143Z,5.68
2022-08-24T08:31:02.724Z,5.40
2022-08-24T08:33:30.079Z,5.68
2022-08-24T08:35:57.384Z,5.80
2022-08-24T08:38:24.659Z,5.67
2022-08-24T08:40:51.929Z,5.87
2022-08-24T08:43:19.226Z,6.10
2022-08-24T08:45:46.521Z,5.76
2022-08-24T08:48:13.832Z,5.99
2022-08-24T08:50:41.095Z,6.14
2022-08-24T08:53:08.382Z,6.19
2022-08-24T08:55:35.685Z,6.21
2022-08-24T08:58:02.961Z,5.55
2022-08-24T09:00:31.636Z,6.12
2022-08-24T09:02:58.956Z,5.59
2022-08-24T09:05:30.590Z,5.38
2022-08-24T09:07:57.905Z,5.24
2022-08-24T09:10:25.253Z,5.20
2022-08-24T09:12:52.537Z,5.04
2022-08-24T09:15:19.805Z,5.53
2022-08-24T09:17:47.079Z,5.34
2022-08-24T09:20:14.355Z,5.24
2022-08-24T09:22:41.653Z,5.19
2022-08-24T09:25:08.914Z,5.09
2022-08-24T09:27:36.197Z,5.05
2022-08-24T09:30:03.504Z,4.72
2022-08-24T09:32:30.781Z,4.82
2022-08-24T09:34:58.070Z,4.68
2022-08-24T09:37:25.387Z,4.79
2022-08-24T09:39:52.685Z,5.25
2022-08-24T09:42:20.020Z,4.63
2022-08-24T09:44:48.490Z,4.56
2022-08-24T09:47:15.765Z,4.62
2022-08-24T09:49:43.169Z,4.80
2022-08-24T09:52:10.447Z,5.16
2022-08-24T09:54:37.738Z,4.81
2022-08-24T09:57:11.967Z,4.61
2022-08-24T09:59:39.603Z,4.78
2022-08-24T10:02:06.947Z,4.92
2022-08-24T10:04:34.382Z,4.73
2022-08-24T10:07:01.757Z,4.93
2022-08-24T10:09:29.027Z,4.89
2022-08-24T10:11:56.293Z,5.26
2022-08-24T10:14:23.594Z,5.15
2022-08-24T10:16:50.927Z,5.36
2022-08-24T10:19:18.242Z,5.39
2022-08-24T10:21:45.543Z,5.29
2022-08-24T10:24:12.825Z,5.60
2022-08-24T10:26:40.128Z,5.90
2022-08-24T10:29:07.486Z,5.60
2022-08-24T10:31:34.767Z,5.63
2022-08-24T10:34:02.047Z,5.71
2022-08-24T10:36:29.327Z,5.76
2022-08-24T10:38:56.588Z,5.48
2022-08-24T10:41:23.856Z,5.69
2022-08-24T10:43:51.149Z,5.19
2022-08-24T10:46:18.446Z,5.68
2022-08-24T10:48:45.719Z,4.88
2022-08-24T10:51:13.806Z,5.22
2022-08-24T10:53:41.099Z,5.56
2022-08-24T10:56:08.409Z,6.35
2022-08-24T10:58:35.683Z,5.93
2022-08-24T11:01:02.979Z,5.01
2022-08-24T11:03:30.311Z,4.74
2022-08-24T11:05:57.602Z,4.67
2022-08-24T11:08:24.872Z,5.22
2022-08-24T11:10:52.162Z,5.41
2022-08-24T11:13:19.427Z,5.12
2022-08-24T11:15:46.691Z,5.42
2022-08-24T11:18:13.990Z,5.66
2022-08-24T11:20:41.262Z,5.34
2022-08-24T11:23:08.528Z,5.37
2022-08-24T11:25:35.821Z,4.80
2022-08-24T11:28:03.173Z,5.56
2022-08-24T11:30:30.550Z,5.87
2022-08-24T11:32:57.817Z,5.70
2022-08-24T11:35:25.115Z,5.37
2022-08-24T11:37:52.375Z,5.56
2022-08-24T11:40:19.726Z,5.24
2022-08-24T11:42:47.079Z,5.59
2022-08-24T11:45:16.297Z,5.98
2022-08-24T11:47:43.556Z,6.23
2022-08-24T11:50:10.978Z,5.84
2022-08-24T11:52:38.278Z,6.07
2022-08-24T11:55:05.610Z,6.24
2022-08-24T11:57:32.941Z,6.63
2022-08-24T12:00:00.220Z,6.54
2022-08-24T12:02:27.589Z,6.51
2022-08-24T12:04:55.018Z,6.45
2022-08-24T12:07:22.321Z,6.40
2022-08-24T12:09:49.611Z,6.55
2022-08-24T12:12:16.878Z,6.07
2022-08-24T12:14:44.146Z,6.30
2022-08-24T12:17:11.428Z,6.10
2022-08-24T12:19:38.698Z,6.30
2022-08-24T12:22:05.963Z,6.24
2022-08-24T12:24:33.254Z,6.20
2022-08-24T12:27:00.555Z,6.60
2022-08-24T12:29:27.831Z,7.06
2022-08-24T12:31:55.122Z,6.78
2022-08-24T12:34:22.459Z,7.13
2022-08-24T12:36:49.742Z,6.84
2022-08-24T12:39:17.044Z,6.53
2022-08-24T12:41:44.331Z,6.26
2022-08-24T12:44:11.708Z,6.25
2022-08-24T12:46:39.004Z,5.56
2022-08-24T12:49:06.298Z,5.35
2022-08-24T12:51:33.592Z,5.61
2022-08-24T12:54:00.883Z,5.63
2022-08-24T12:56:28.156Z,5.62
2022-08-24T12:58:55.488Z,5.85
2022-08-24T13:01:27.786Z,5.81
2022-08-24T13:03:56.683Z,5.57
2022-08-24T13:06:26.341Z,6.00
2022-08-24T13:08:53.887Z,5.30
2022-08-24T13:11:21.186Z,5.80
2022-08-24T13:13:48.456Z,5.66
2022-08-24T13:16:15.831Z,5.91
2022-08-24T13:18:43.189Z,5.52
2022-08-24T13:21:10.471Z,5.60
2022-08-24T13:23:37.772Z,5.67
2022-08-24T13:26:05.067Z,6.09
2022-08-24T13:28:32.343Z,6.03
2022-08-24T13:30:59.685Z,6.23
2022-08-24T13:33:26.984Z,5.58
2022-08-24T13:35:54.923Z,5.84
2022-08-24T13:38:22.225Z,5.22
2022-08-24T13:40:49.529Z,5.26
2022-08-24T13:43:16.825Z,5.35
2022-08-24T13:45:44.095Z,5.67
2022-08-24T13:48:11.384Z,5.34
2022-08-24T13:50:38.651Z,5.22
2022-08-24T13:53:05.933Z,5.18
2022-08-24T13:55:33.258Z,5.39
2022-08-24T13:58:00.610Z,5.60
2022-08-24T14:00:27.981Z,5.38
2022-08-24T14:02:55.259Z,5.40
2022-08-24T14:05:22.624Z,5.61
2022-08-24T14:07:51.884Z,5.85
2022-08-24T14:10:19.162Z,6.18
2022-08-24T14:12:46.537Z,5.75
2022-08-24T14:15:15.765Z,5.60
2022-08-24T14:17:43.038Z,5.74
2022-08-24T14:20:10.339Z,5.39
2022-08-24T14:22:37.628Z,5.20
2022-08-24T14:25:04.900Z,5.48
2022-08-24T14:27:32.206Z,5.52
2022-08-24T14:29:59.477Z,5.26
2022-08-24T14:32:26.752Z,5.16
2022-08-24T14:34:54.050Z,5.47
2022-08-24T14:37:21.325Z,5.38
2022-08-24T14:39:48.667Z,5.04
2022-08-24T14:42:15.988Z,5.46
2022-08-24T14:44:43.247Z,5.76
2022-08-24T14:47:10.523Z,5.46
2022-08-24T14:49:37.826Z,5.43
2022-08-24T14:52:05.107Z,5.63
2022-08-24T14:54:32.399Z,5.23
2022-08-24T14:56:59.705Z,4.94
2022-08-24T14:59:27.008Z,5.10
2022-08-24T15:01:54.357Z,5.16
2022-08-24T15:04:30.785Z,4.96
2022-08-24T15:07:05.169Z,5.45
2022-08-24T15:09:32.465Z,5.16
2022-08-24T15:11:59.746Z,4.96
2022-08-24T15:14:33.652Z,5.02
2022-08-24T15:17:04.763Z,4.92
2022-08-24T15:19:32.062Z,4.61
2022-08-24T15:21:59.330Z,4.52
2022-08-24T15:26:58.789Z,4.59
2022-08-24T15:29:26.196Z,4.53
2022-08-24T15:31:53.497Z,4.34
2022-08-24T15:34:20.797Z,4.21
2022-08-24T15:36:48.063Z,4.40
2022-08-24T15:39:15.346Z,4.00
2022-08-24T15:41:42.646Z,4.57
2022-08-24T15:44:09.921Z,4.23
2022-08-24T15:46:37.237Z,4.24
2022-08-24T15:49:05.231Z,3.74
2022-08-24T15:51:32.510Z,3.85
2022-08-24T15:54:01.814Z,3.96
2022-08-24T15:56:29.089Z,4.04
2022-08-24T15:58:56.353Z,3.81
2022-08-24T16:01:23.688Z,3.67
2022-08-24T16:03:51.051Z,3.87
2022-08-24T16:06:18.335Z,3.69
2022-08-24T16:08:45.633Z,3.77
2022-08-24T16:11:12.933Z,3.69
2022-08-24T16:13:40.208Z,3.79
2022-08-24T16:16:07.489Z,3.70
2022-08-24T16:18:34.791Z,3.73
2022-08-24T16:21:02.070Z,3.79
2022-08-24T16:23:29.781Z,3.84
2022-08-24T16:25:57.077Z,3.58
2022-08-24T16:28:24.462Z,3.79
2022-08-24T16:30:52.136Z,3.77
2022-08-24T16:33:19.444Z,4.01
2022-08-24T16:35:46.709Z,3.91
2022-08-24T16:38:14.014Z,3.45
2022-08-24T16:40:41.276Z,3.60
2022-08-24T16:43:09.135Z,3.71
2022-08-24T16:45:36.648Z,3.62
2022-08-24T16:48:04.046Z,3.78
2022-08-24T16:50:31.494Z,4.05
2022-08-24T16:52:58.797Z,3.69
2022-08-24T16:55:26.069Z,3.50
2022-08-24T16:57:53.345Z,3.43
2022-08-24T17:00:20.632Z,3.52
2022-08-24T17:02:47.979Z,3.60
2022-08-24T17:05:15.330Z,3.57
2022-08-24T17:07:42.623Z,3.62
2022-08-24T17:10:09.902Z,3.55
2022-08-24T17:12:37.185Z,3.56
2022-08-24T17:15:04.567Z,3.44
2022-08-24T17:17:33.795Z,3.45
2022-08-24T17:20:01.078Z,3.14
2022-08-24T17:22:28.367Z,3.21
2022-08-24T17:24:55.661Z,3.31
2022-08-24T17:27:22.962Z,3.39
2022-08-24T17:29:50.236Z,3.49
2022-08-24T17:32:17.529Z,3.52
2022-08-24T17:34:44.812Z,3.31
2022-08-24T17:37:12.088Z,3.36
2022-08-24T17:39:39.378Z,3.22
2022-08-24T17:42:20.920Z,3.32
2022-08-24T17:44:53.888Z,3.17
2022-08-24T17:47:21.180Z,3.35
2022-08-24T17:49:48.454Z,3.32
2022-08-24T17:52:15.721Z,3.08
2022-08-24T17:54:43.012Z,3.10
2022-08-24T17:57:10.278Z,3.07
2022-08-24T17:59:37.556Z,3.06
2022-08-24T18:02:04.857Z,3.21
2022-08-24T18:04:32.128Z,3.26
2022-08-24T18:06:59.312Z,3.14
2022-08-24T18:09:26.579Z,2.95
2022-08-24T18:11:53.861Z,2.84
2022-08-24T18:14:21.144Z,2.93
2022-08-24T18:16:51.976Z,2.93
2022-08-24T18:19:21.968Z,3.16
2022-08-24T18:21:51.604Z,3.23
2022-08-24T18:24:18.900Z,3.24
2022-08-24T18:26:47.671Z,3.02
2022-08-24T18:29:15.339Z,2.87
2022-08-24T18:31:42.944Z,3.01
2022-08-24T18:34:10.295Z,2.72
2022-08-24T18:36:37.560Z,2.86
2022-08-24T18:39:07.097Z,2.74
2022-08-24T18:41:34.666Z,2.83
2022-08-24T18:44:02.055Z,2.56
2022-08-24T18:46:29.319Z,2.63
2022-08-24T18:48:56.625Z,2.85
2022-08-24T18:51:23.920Z,2.62
2022-08-24T18:53:55.061Z,2.56
2022-08-24T18:56:22.355Z,2.68
2022-08-24T18:58:49.649Z,2.62
2022-08-24T19:01:16.984Z,2.55
2022-08-24T19:03:44.380Z,2.62
2022-08-24T19:06:11.662Z,2.58
2022-08-24T19:08:38.958Z,2.59
2022-08-24T19:11:06.233Z,2.84
2022-08-24T19:13:33.505Z,2.55
2022-08-24T19:16:00.835Z,2.80
2022-08-24T19:18:28.129Z,2.91
2022-08-24T19:20:55.397Z,2.71
2022-08-24T19:23:22.699Z,2.77
2022-08-24T19:25:49.972Z,2.73
2022-08-24T19:28:17.236Z,2.68
2022-08-24T19:30:44.538Z,2.98
2022-08-24T19:33:14.253Z,2.99
2022-08-24T19:35:41.890Z,2.87
2022-08-24T19:38:09.172Z,2.82
2022-08-24T19:40:37.041Z,2.80
2022-08-24T19:43:08.665Z,2.92
2022-08-24T19:45:36.005Z,3.05
2022-08-24T19:48:03.320Z,2.84
2022-08-24T19:50:32.939Z,2.92
2022-08-24T19:53:03.130Z,2.91
2022-08-24T19:55:32.578Z,3.02
2022-08-24T19:57:59.858Z,2.97
2022-08-24T20:00:27.174Z,3.08
2022-08-24T20:02:54.475Z,3.14
2022-08-24T20:05:21.743Z,3.38
2022-08-24T20:07:49.041Z,3.40
2022-08-24T20:10:16.321Z,3.17
2022-08-24T20:12:43.595Z,3.25
2022-08-24T20:15:10.908Z,3.30
2022-08-24T20:17:38.178Z,3.41
2022-08-24T20:20:05.467Z,3.32
2022-08-24T20:22:32.747Z,3.63
2022-08-24T20:25:00.030Z,3.59
2022-08-24T20:27:27.311Z,3.53
2022-08-24T20:29:54.597Z,3.46
2022-08-24T20:32:21.899Z,3.18
2022-08-24T20:34:49.166Z,3.55
2022-08-24T20:37:16.448Z,3.73
2022-08-24T20:39:43.777Z,3.53
2022-08-24T20:42:16.435Z,3.64
2022-08-24T20:44:45.685Z,3.68
2022-08-24T20:47:12.964Z,3.60
2022-08-24T20:49:40.239Z,3.80
2022-08-24T20:52:07.620Z,3.67
2022-08-24T20:54:39.633Z,3.78
2022-08-24T20:57:07.090Z,3.48
2022-08-24T20:59:34.368Z,3.73
2022-08-24T21:02:01.647Z,3.89
2022-08-24T21:04:28.918Z,3.76
2022-08-24T21:06:56.231Z,3.67
2022-08-24T21:09:23.523Z,3.75
2022-08-24T21:11:50.805Z,4.18
2022-08-24T21:14:18.113Z,3.97
2022-08-24T21:16:45.380Z,3.66
2022-08-24T21:19:12.657Z,3.78
2022-08-24T21:21:42.410Z,4.15
2022-08-24T21:24:09.917Z,4.15
2022-08-24T21:26:37.292Z,4.05
2022-08-24T21:29:04.569Z,4.08
2022-08-24T21:31:31.903Z,4.20
2022-08-24T21:33:59.217Z,3.97
2022-08-24T21:36:27.983Z,4.07
2022-08-24T21:38:55.555Z,4.18
2022-08-24T21:41:22.853Z,4.00
2022-08-24T21:43:50.126Z,4.13
2022-08-24T21:46:17.510Z,4.20
2022-08-24T21:48:44.812Z,4.26
2022-08-24T21:51:12.090Z,4.33
2022-08-24T21:53:39.401Z,4.22
2022-08-24T21:56:06.685Z,4.19
2022-08-24T21:58:33.948Z,4.37
2022-08-24T22:01:01.416Z,4.43
2022-08-24T22:03:37.412Z,4.47
2022-08-24T22:06:08.133Z,4.37
2022-08-24T22:08:35.461Z,4.22
2022-08-24T22:11:02.745Z,4.45
2022-08-24T22:13:30.037Z,4.68
2022-08-24T22:15:57.345Z,4.48
2022-08-24T22:18:24.683Z,4.35
2022-08-24T22:20:51.948Z,4.34
2022-08-24T22:23:19.214Z,4.47
2022-08-24T22:25:46.491Z,4.44
2022-08-24T22:28:13.787Z,4.65
2022-08-24T22:30:41.061Z,4.53
2022-08-24T22:33:08.341Z,4.25
2022-08-24T22:35:44.658Z,4.28
2022-08-24T22:38:12.783Z,4.48
2022-08-24T22:40:40.177Z,4.53
2022-08-24T22:43:07.849Z,4.30
2022-08-24T22:45:35.121Z,4.24
2022-08-24T22:48:02.413Z,4.42
2022-08-24T22:50:29.686Z,4.60
2022-08-24T22:52:56.952Z,4.28
2022-08-24T22:55:24.244Z,4.07
2022-08-24T22:57:51.722Z,4.14
2022-08-24T23:00:18.996Z,4.30
2022-08-24T23:02:46.297Z,4.53
2022-08-24T23:05:13.701Z,4.14
2022-08-24T23:07:40.974Z,4.31
2022-08-24T23:10:08.247Z,4.22
2022-08-24T23:12:35.536Z,4.37
2022-08-24T23:15:04.767Z,4.50
2022-08-24T23:17:32.049Z,4.15
2022-08-24T23:19:59.336Z,4.33
2022-08-24T23:22:26.636Z,4.21
2022-08-24T23:24:54.102Z,4.34
2022-08-24T23:27:21.381Z,4.21
2022-08-24T23:29:48.681Z,4.64
2022-08-24T23:32:17.943Z,4.44
2022-08-24T23:34:45.444Z,4.27
2022-08-24T23:37:12.748Z,4.27
2022-08-24T23:39:40.045Z,4.30
2022-08-24T23:42:07.328Z,4.27
2022-08-24T23:44:34.599Z,4.24
2022-08-24T23:47:01.998Z,4.12
2022-08-24T23:49:31.215Z,4.02
2022-08-24T23:51:58.479Z,4.15
2022-08-24T23:54:25.910Z,3.77
2022-08-24T23:56:53.190Z,4.45
2022-08-24T23:59:20.474Z,4.29
